Time;durP1;ratioP1;P1;durP2;ratioP2;P2;SDS_P1;SDS_P2;PMS_P1;PMS_P2;Temp;Humidity;BMP_temperature;BMP_pressure;BME280_temperature;BME280_humidity;BME280_pressure;Samples;Min_cycle;Max_cycle;Signal;HPM_P1;HPM_P2
2023/01/31 00:00:03;;;;;;;;;;;2.20;99.90;;;;;;4953989;29;20382;-75
2023/01/31 00:02:29;;;;;;;;;;;2.20;99.90;;;;;;4954074;28;19906;-75
2023/01/31 00:04:55;;;;;;;;;;;2.20;99.90;;;;;;4952784;29;20009;-75
2023/01/31 00:07:20;;;;;;;;;;;2.30;99.90;;;;;;4954049;29;20377;-76
2023/01/31 00:09:46;;;;;;;;;;;2.30;99.90;;;;;;4953811;29;19906;-75
2023/01/31 00:12:11;;;;;;;;;;;2.30;99.90;;;;;;4953947;29;20001;-76
2023/01/31 00:14:37;;;;;;;;;;;2.20;99.90;;;;;;4952422;29;20434;-76
2023/01/31 00:17:02;;;;;;;;;;;2.30;99.90;;;;;;4953894;29;19906;-75
2023/01/31 00:19:28;;;;;;;;;;;2.40;99.90;;;;;;4953677;29;20299;-73
2023/01/31 00:21:53;;;;;;;;;;;2.30;99.90;;;;;;4953720;29;20034;-73
2023/01/31 00:24:19;;;;;;;;;;;2.20;99.90;;;;;;4953627;29;19914;-76
2023/01/31 00:26:45;;;;;;;;;;;2.10;99.90;;;;;;4951677;28;20440;-76
2023/01/31 00:29:10;;;;;;;;;;;2.20;99.90;;;;;;4953665;29;20427;-76
2023/01/31 00:31:36;;;;;;;;;;;2.10;99.90;;;;;;4953522;29;19926;-75
2023/01/31 00:34:01;;;;;;;;;;;2.00;99.90;;;;;;4952069;29;19928;-75
2023/01/31 00:36:28;;;;;;;;;;;2.00;99.90;;;;;;4952209;28;20531;-75
2023/01/31 00:38:56;;;;;;;;;;;2.00;99.90;;;;;;4953614;28;19906;-75
2023/01/31 00:41:22;;;;;;;;;;;2.00;99.90;;;;;;4953409;28;19910;-76
2023/01/31 00:43:48;;;;;;;;;;;2.00;99.90;;;;;;4953352;28;19913;-75
2023/01/31 00:46:13;;;;;;;;;;;2.10;99.90;;;;;;4952989;28;19910;-75
2023/01/31 00:48:39;;;;;;;;;;;2.10;99.90;;;;;;4951647;29;20307;-75
2023/01/31 00:51:04;;;;;;;;;;;2.10;99.90;;;;;;4952196;29;19914;-76
2023/01/31 00:53:30;;;;;;;;;;;2.10;99.90;;;;;;4952972;29;19914;-75
2023/01/31 00:56:01;;;;;;;;;;;2.20;99.90;;;;;;4951663;29;19957;-75
2023/01/31 00:58:27;;;;;;;;;;;2.30;99.90;;;;;;4952878;28;19906;-75
2023/01/31 01:00:52;;;;;;;;;;;2.40;99.90;;;;;;4953100;28;20342;-74
2023/01/31 01:03:18;;;;;;;;;;;2.50;99.90;;;;;;4952827;28;19910;-75
2023/01/31 01:05:43;;;;;;;;;;;2.60;99.90;;;;;;4953075;29;19910;-75
2023/01/31 01:08:09;;;;;;;;;;;2.60;99.90;;;;;;4952882;29;19906;-75
2023/01/31 01:10:34;;;;;;;;;;;2.60;99.90;;;;;;4951525;29;20072;-75
2023/01/31 01:13:00;;;;;;;;;;;2.60;99.90;;;;;;4952858;29;19918;-75
2023/01/31 01:15:26;;;;;;;;;;;2.60;99.90;;;;;;4952760;28;20000;-75
2023/01/31 01:17:51;;;;;;;;;;;2.60;99.90;;;;;;4952571;28;20061;-75
2023/01/31 01:20:17;;;;;;;;;;;2.60;99.90;;;;;;4951677;29;19910;-75
2023/01/31 01:22:42;;;;;;;;;;;2.60;99.90;;;;;;4952249;28;19906;-75
2023/01/31 01:25:08;;;;;;;;;;;2.60;99.90;;;;;;4951325;28;19964;-74
2023/01/31 01:27:34;;;;;;;;;;;2.60;99.90;;;;;;4952248;28;19992;-75
2023/01/31 01:30:00;;;;;;;;;;;2.60;99.90;;;;;;4951134;29;19922;-75
2023/01/31 01:32:26;;;;;;;;;;;2.60;99.90;;;;;;4951058;28;19914;-74
2023/01/31 01:34:52;;;;;;;;;;;2.50;99.90;;;;;;4952587;28;19910;-75
2023/01/31 01:37:20;;;;;;;;;;;2.40;99.90;;;;;;4951193;29;19917;-76
2023/01/31 01:39:46;;;;;;;;;;;2.50;99.90;;;;;;4951661;28;19906;-75
2023/01/31 01:42:16;;;;;;;;;;;2.50;99.90;;;;;;4952409;28;19916;-75
2023/01/31 01:44:52;;;;;;;;;;;2.50;99.90;;;;;;4951050;28;20491;-75
2023/01/31 01:47:25;;;;;;;;;;;2.40;99.90;;;;;;4952223;28;19918;-75
2023/01/31 01:49:59;;;;;;;;;;;2.40;99.90;;;;;;4952292;28;19910;-76
2023/01/31 01:52:26;;;;;;;;;;;2.40;99.90;;;;;;4951180;29;19961;-75
2023/01/31 01:54:58;;;;;;;;;;;2.40;99.90;;;;;;4952292;28;19913;-76
2023/01/31 01:57:29;;;;;;;;;;;2.40;99.90;;;;;;4950743;28;20393;-75
2023/01/31 02:00:00;;;;;;;;;;;2.40;99.90;;;;;;4950839;29;19914;-74
2023/01/31 02:02:25;;;;;;;;;;;2.40;99.90;;;;;;4952234;28;20426;-74
2023/01/31 02:04:51;;;;;;;;;;;2.40;99.90;;;;;;4950725;28;19957;-75
2023/01/31 02:07:17;;;;;;;;;;;2.40;99.90;;;;;;4950838;29;20272;-75
2023/01/31 02:10:03;;;;;;;;;;;2.40;99.90;;;;;;4952042;29;19911;-75
2023/01/31 02:12:30;;;;;;;;;;;2.30;99.90;;;;;;4952102;28;19957;-75
2023/01/31 02:14:56;;;;;;;;;;;2.20;99.90;;;;;;4952244;28;19910;-75
2023/01/31 02:17:21;;;;;;;;;;;2.20;99.90;;;;;;4952152;28;20402;-75
2023/01/31 02:19:50;;;;;;;;;;;2.20;99.90;;;;;;4951806;28;20026;-74
2023/01/31 02:22:15;;;;;;;;;;;2.00;99.90;;;;;;4952042;28;19914;-75
2023/01/31 02:24:56;;;;;;;;;;;1.90;99.90;;;;;;4951968;28;20454;-75
2023/01/31 02:27:40;;;;;;;;;;;1.80;99.90;;;;;;4951929;28;19918;-75
2023/01/31 02:30:06;;;;;;;;;;;1.80;99.90;;;;;;4951936;28;19911;-75
2023/01/31 02:32:31;;;;;;;;;;;1.60;99.90;;;;;;4951862;28;19962;-76
2023/01/31 02:35:06;;;;;;;;;;;1.60;99.90;;;;;;4950544;28;19969;-73
2023/01/31 02:37:36;;;;;;;;;;;1.70;99.90;;;;;;4950587;29;19914;-76
2023/01/31 02:40:20;;;;;;;;;;;1.70;99.90;;;;;;4951878;28;19953;-75
2023/01/31 02:42:46;;;;;;;;;;;1.80;99.90;;;;;;4950837;29;20286;-75
2023/01/31 02:45:20;;;;;;;;;;;1.70;99.90;;;;;;4951690;28;19913;-76
2023/01/31 02:47:53;;;;;;;;;;;1.80;99.90;;;;;;4951757;29;20021;-73
2023/01/31 02:50:23;;;;;;;;;;;1.90;99.90;;;;;;4952673;28;19917;-75
2023/01/31 02:52:51;;;;;;;;;;;1.90;99.90;;;;;;4955233;28;20009;-74
2023/01/31 02:58:06;;;;;;;;;;;1.80;99.90;;;;;;4955449;29;19953;-75
2023/01/31 03:00:34;;;;;;;;;;;1.70;99.90;;;;;;4953538;29;20364;-75
2023/01/31 03:02:59;;;;;;;;;;;1.70;99.90;;;;;;4955183;28;19907;-76
2023/01/31 03:05:25;;;;;;;;;;;1.60;99.90;;;;;;4954854;28;19922;-76
2023/01/31 03:07:53;;;;;;;;;;;1.70;99.90;;;;;;4953527;29;19906;-74
2023/01/31 03:10:24;;;;;;;;;;;1.80;99.90;;;;;;4955009;28;19913;-76
2023/01/31 03:12:50;;;;;;;;;;;1.80;99.90;;;;;;4953512;29;19914;-75
2023/01/31 03:17:30;;;;;;;;;;;1.80;99.90;;;;;;4954857;28;19914;-74
2023/01/31 03:18:22;;;;;;;;;;;1.90;99.90;;;;;;4954771;28;19910;-75
2023/01/31 03:21:08;;;;;;;;;;;1.90;99.90;;;;;;4954742;28;19906;-76
2023/01/31 03:23:36;;;;;;;;;;;2.00;99.90;;;;;;4954776;28;19956;-75
2023/01/31 03:26:03;;;;;;;;;;;2.00;99.90;;;;;;4954931;28;20287;-74
2023/01/31 03:28:31;;;;;;;;;;;2.10;99.90;;;;;;4954731;28;19910;-75
2023/01/31 03:30:56;;;;;;;;;;;2.10;99.90;;;;;;4954551;28;19907;-78
2023/01/31 03:33:24;;;;;;;;;;;2.10;99.90;;;;;;4953413;29;20323;-76
2023/01/31 03:35:58;;;;;;;;;;;2.20;99.90;;;;;;4953678;29;19910;-75
2023/01/31 03:38:29;;;;;;;;;;;2.10;99.90;;;;;;4954715;28;19917;-74
2023/01/31 03:40:57;;;;;;;;;;;2.00;99.90;;;;;;4954428;28;19993;-74
2023/01/31 03:43:41;;;;;;;;;;;2.00;99.90;;;;;;4954636;28;19906;-75
2023/01/31 03:46:18;;;;;;;;;;;1.90;99.90;;;;;;4954307;28;20291;-75
2023/01/31 03:48:45;;;;;;;;;;;1.90;99.90;;;;;;4954415;28;19918;-75
2023/01/31 03:51:15;;;;;;;;;;;1.80;99.90;;;;;;4953294;28;19914;-75
2023/01/31 03:53:48;;;;;;;;;;;1.80;99.90;;;;;;4954214;28;19919;-75
2023/01/31 03:56:20;;;;;;;;;;;1.80;99.90;;;;;;4954220;28;19918;-74
2023/01/31 03:58:50;;;;;;;;;;;1.80;99.90;;;;;;4952715;29;19957;-75
2023/01/31 04:01:17;;;;;;;;;;;1.80;99.90;;;;;;4954043;28;19914;-75
2023/01/31 04:04:08;;;;;;;;;;;1.80;99.90;;;;;;4952319;29;19918;-74
2023/01/31 04:06:34;;;;;;;;;;;1.80;99.90;;;;;;4924074;28;19961;-75
2023/01/31 04:09:00;;;;;;;;;;;1.80;99.90;;;;;;4952659;29;19914;-74
2023/01/31 04:11:26;;;;;;;;;;;1.70;99.90;;;;;;4952423;29;19957;-76
2023/01/31 04:13:51;;;;;;;;;;;1.70;99.90;;;;;;4953917;28;19914;-73
2023/01/31 04:16:17;;;;;;;;;;;1.70;99.90;;;;;;4953943;29;19985;-74
2023/01/31 04:18:43;;;;;;;;;;;1.50;99.90;;;;;;4953887;28;20306;-75
2023/01/31 04:21:08;;;;;;;;;;;1.40;99.90;;;;;;4952386;29;20620;-76
2023/01/31 04:23:34;;;;;;;;;;;1.30;99.90;;;;;;4953693;29;20239;-76
2023/01/31 04:26:00;;;;;;;;;;;1.20;99.90;;;;;;4953711;28;20295;-75
2023/01/31 04:28:25;;;;;;;;;;;1.10;99.90;;;;;;4953718;29;20322;-74
2023/01/31 04:30:54;;;;;;;;;;;1.10;99.90;;;;;;4953524;29;20008;-77
2023/01/31 04:33:20;;;;;;;;;;;1.00;99.90;;;;;;4952220;28;19921;-74
2023/01/31 04:35:46;;;;;;;;;;;0.90;99.90;;;;;;4953554;28;19910;-74
2023/01/31 04:38:11;;;;;;;;;;;0.90;99.90;;;;;;4953430;29;19942;-75
2023/01/31 04:40:37;;;;;;;;;;;0.90;99.90;;;;;;4953290;29;19913;-76
2023/01/31 04:43:02;;;;;;;;;;;0.90;99.90;;;;;;4968131;28;19907;-75
2023/01/31 04:45:28;;;;;;;;;;;0.80;99.90;;;;;;4951787;28;20418;-77
2023/01/31 04:47:53;;;;;;;;;;;0.90;99.90;;;;;;4952973;29;20714;-73
2023/01/31 04:50:19;;;;;;;;;;;0.90;99.90;;;;;;4952979;29;20378;-77
2023/01/31 04:52:48;;;;;;;;;;;1.00;99.90;;;;;;4953007;29;19929;-76
2023/01/31 04:55:13;;;;;;;;;;;1.10;99.90;;;;;;4952718;28;19914;-75
2023/01/31 04:57:39;;;;;;;;;;;1.20;99.90;;;;;;4952689;28;20298;-75
2023/01/31 05:00:04;;;;;;;;;;;1.20;99.90;;;;;;4952527;28;19932;-76
2023/01/31 05:02:30;;;;;;;;;;;1.30;99.90;;;;;;4950090;28;20378;-74
2023/01/31 05:04:56;;;;;;;;;;;1.30;99.90;;;;;;4951493;28;19906;-75
2023/01/31 05:07:21;;;;;;;;;;;1.20;99.90;;;;;;4951489;29;19955;-75
2023/01/31 05:09:47;;;;;;;;;;;1.30;99.90;;;;;;4952654;29;19989;-76
2023/01/31 05:12:12;;;;;;;;;;;1.30;99.90;;;;;;4952557;29;19985;-77
2023/01/31 05:14:38;;;;;;;;;;;1.40;99.90;;;;;;4951358;28;19957;-76
2023/01/31 05:17:03;;;;;;;;;;;1.50;99.90;;;;;;4951409;28;20024;-75
2023/01/31 05:19:29;;;;;;;;;;;1.50;99.90;;;;;;4950926;28;19921;-76
2023/01/31 05:21:57;;;;;;;;;;;1.50;99.90;;;;;;4951132;29;20675;-74
2023/01/31 05:24:28;;;;;;;;;;;1.60;99.90;;;;;;4950799;29;19914;-75
2023/01/31 05:26:57;;;;;;;;;;;1.60;99.90;;;;;;4952509;28;19906;-73
2023/01/31 05:29:29;;;;;;;;;;;1.50;99.90;;;;;;4952331;28;19956;-75
2023/01/31 05:31:55;;;;;;;;;;;1.60;99.90;;;;;;4952328;28;20022;-75
2023/01/31 05:34:23;;;;;;;;;;;1.70;99.90;;;;;;4950800;29;19985;-75
2023/01/31 05:36:48;;;;;;;;;;;1.70;99.90;;;;;;4951028;29;19906;-74
2023/01/31 05:39:14;;;;;;;;;;;1.70;99.90;;;;;;4952157;28;20279;-74
2023/01/31 05:41:39;;;;;;;;;;;1.60;99.90;;;;;;4950760;28;19914;-76
2023/01/31 05:44:05;;;;;;;;;;;1.50;99.90;;;;;;4952215;28;19910;-75
2023/01/31 05:46:31;;;;;;;;;;;1.40;99.90;;;;;;4952145;28;19910;-74
2023/01/31 05:48:56;;;;;;;;;;;1.30;99.90;;;;;;4951038;29;20494;-75
2023/01/31 05:51:22;;;;;;;;;;;1.30;99.90;;;;;;4952051;28;19914;-76
2023/01/31 05:53:48;;;;;;;;;;;1.30;99.90;;;;;;4952169;29;20009;-75
2023/01/31 05:56:15;;;;;;;;;;;1.30;99.90;;;;;;4952147;28;19914;-75
2023/01/31 05:58:41;;;;;;;;;;;1.30;99.90;;;;;;4952152;28;19917;-75
2023/01/31 06:01:06;;;;;;;;;;;1.30;99.90;;;;;;4951042;28;19906;-76
2023/01/31 06:03:32;;;;;;;;;;;1.30;99.90;;;;;;4952174;29;19910;-75
2023/01/31 06:05:57;;;;;;;;;;;1.30;99.90;;;;;;4950768;29;19907;-76
2023/01/31 06:08:23;;;;;;;;;;;1.30;99.90;;;;;;4952381;28;19917;-75
2023/01/31 06:10:48;;;;;;;;;;;1.40;99.90;;;;;;4952205;29;20030;-75
2023/01/31 06:13:14;;;;;;;;;;;1.40;99.90;;;;;;4952035;29;19949;-76
2023/01/31 06:15:43;;;;;;;;;;;1.40;99.90;;;;;;4950505;29;19985;-76
2023/01/31 06:18:08;;;;;;;;;;;1.50;99.90;;;;;;4952142;28;19910;-75
2023/01/31 06:20:34;;;;;;;;;;;1.60;99.90;;;;;;4951957;28;19929;-76
2023/01/31 06:23:00;;;;;;;;;;;1.70;99.90;;;;;;4951996;29;19914;-75
2023/01/31 06:25:26;;;;;;;;;;;1.90;99.90;;;;;;4953009;28;19910;-75
2023/01/31 06:27:51;;;;;;;;;;;1.90;99.90;;;;;;4954333;29;19906;-74
2023/01/31 06:30:17;;;;;;;;;;;2.10;99.90;;;;;;4954502;28;20037;-73
2023/01/31 06:32:42;;;;;;;;;;;2.00;99.90;;;;;;4954180;29;19910;-75
2023/01/31 06:35:08;;;;;;;;;;;2.10;99.90;;;;;;4955302;28;20394;-74
2023/01/31 06:37:33;;;;;;;;;;;2.10;99.90;;;;;;4954200;29;19906;-73
2023/01/31 06:39:59;;;;;;;;;;;2.10;99.90;;;;;;4954069;29;20484;-77
2023/01/31 06:42:24;;;;;;;;;;;2.10;99.90;;;;;;4955787;29;19958;-75
2023/01/31 06:44:50;;;;;;;;;;;2.10;99.90;;;;;;4955273;28;20656;-75
2023/01/31 06:47:16;;;;;;;;;;;2.10;99.90;;;;;;4953958;29;20409;-75
2023/01/31 06:49:41;;;;;;;;;;;2.10;99.90;;;;;;4955533;29;19920;-75
2023/01/31 06:52:07;;;;;;;;;;;2.30;99.90;;;;;;4955575;28;20311;-75
2023/01/31 06:54:32;;;;;;;;;;;2.60;99.90;;;;;;4955428;29;19974;-75
2023/01/31 06:56:58;;;;;;;;;;;3.00;99.90;;;;;;4954376;29;20382;-74
2023/01/31 06:59:23;;;;;;;;;;;3.40;99.90;;;;;;4955356;28;19917;-73
2023/01/31 07:01:49;;;;;;;;;;;3.90;99.90;;;;;;4970035;28;19914;-74
2023/01/31 07:04:14;;;;;;;;;;;4.40;99.90;;;;;;4955015;29;19952;-73
2023/01/31 07:06:40;;;;;;;;;;;4.80;99.90;;;;;;4955095;29;19961;-73
2023/01/31 07:09:06;;;;;;;;;;;5.30;99.90;;;;;;4954818;28;19991;-73
2023/01/31 07:11:31;;;;;;;;;;;5.80;99.90;;;;;;4953598;29;20375;-73
2023/01/31 07:13:57;;;;;;;;;;;6.40;99.90;;;;;;4954961;28;19926;-73
2023/01/31 07:16:24;;;;;;;;;;;6.80;99.90;;;;;;4955022;28;20279;-73
2023/01/31 07:18:53;;;;;;;;;;;7.10;99.90;;;;;;4954908;28;19973;-74
2023/01/31 07:21:18;;;;;;;;;;;7.50;99.90;;;;;;4954883;28;19910;-75
2023/01/31 07:23:45;;;;;;;;;;;7.70;99.90;;;;;;4953457;29;19953;-75
2023/01/31 07:26:10;;;;;;;;;;;7.80;99.90;;;;;;4955158;28;19953;-76
2023/01/31 07:28:36;;;;;;;;;;;7.90;99.30;;;;;;4953312;28;19946;-75
2023/01/31 07:31:05;;;;;;;;;;;7.80;99.90;;;;;;4954697;29;19913;-75
2023/01/31 07:33:32;;;;;;;;;;;7.90;99.10;;;;;;4954535;28;20382;-75
2023/01/31 07:35:57;;;;;;;;;;;7.80;98.60;;;;;;4954535;28;19969;-75
2023/01/31 07:38:23;;;;;;;;;;;7.70;98.40;;;;;;4953657;29;20343;-75
2023/01/31 07:40:48;;;;;;;;;;;7.80;97.30;;;;;;4954504;29;19910;-76
2023/01/31 07:43:14;;;;;;;;;;;7.60;94.50;;;;;;4954398;29;19907;-75
2023/01/31 07:45:41;;;;;;;;;;;7.90;96.30;;;;;;4954113;28;20390;-75
2023/01/31 07:48:07;;;;;;;;;;;8.20;95.30;;;;;;4954338;28;20013;-75
2023/01/31 07:50:32;;;;;;;;;;;8.10;94.50;;;;;;4954278;29;20348;-76
2023/01/31 07:52:58;;;;;;;;;;;8.00;96.30;;;;;;4952722;29;19922;-76
2023/01/31 07:55:24;;;;;;;;;;;7.90;97.70;;;;;;4954294;29;19907;-75
2023/01/31 07:57:49;;;;;;;;;;;7.90;99.40;;;;;;4954007;28;19910;-76
2023/01/31 08:05:44;;;;;;;;;;;8.30;97.70;;;;;;4954562;29;19933;-75
2023/01/31 08:08:10;;;;;;;;;;;8.70;96.00;;;;;;4952363;28;19997;-76
2023/01/31 08:10:36;;;;;;;;;;;8.70;90.90;;;;;;4952460;29;19998;-76
2023/01/31 08:13:01;;;;;;;;;;;8.80;89.10;;;;;;4954001;28;19917;-75
2023/01/31 08:15:27;;;;;;;;;;;8.80;84.20;;;;;;4953901;28;19997;-73
2023/01/31 08:17:52;;;;;;;;;;;8.80;85.40;;;;;;4953841;29;19957;-74
2023/01/31 08:20:18;;;;;;;;;;;9.10;81.20;;;;;;4953731;29;19961;-73
2023/01/31 08:22:43;;;;;;;;;;;9.00;81.20;;;;;;4953776;29;19918;-73
2023/01/31 08:25:09;;;;;;;;;;;8.80;80.40;;;;;;4953733;29;20375;-74
2023/01/31 08:27:35;;;;;;;;;;;8.70;83.40;;;;;;4953865;28;19934;-73
2023/01/31 08:30:01;;;;;;;;;;;8.80;83.50;;;;;;4953268;28;19913;-73
2023/01/31 08:32:26;;;;;;;;;;;8.90;82.60;;;;;;4953470;29;19910;-72
2023/01/31 08:34:52;;;;;;;;;;;9.10;82.00;;;;;;4953247;28;19906;-73
2023/01/31 08:37:17;;;;;;;;;;;9.50;79.40;;;;;;4952282;29;19910;-73
2023/01/31 08:39:43;;;;;;;;;;;9.70;77.30;;;;;;4953113;28;20371;-73
2023/01/31 08:42:08;;;;;;;;;;;10.00;75.60;;;;;;4953342;29;20375;-73
2023/01/31 08:44:36;;;;;;;;;;;10.30;71.30;;;;;;4953263;28;20363;-73
2023/01/31 08:47:02;;;;;;;;;;;10.30;71.00;;;;;;4951898;29;20473;-74
2023/01/31 08:49:28;;;;;;;;;;;10.30;69.30;;;;;;4951642;28;19949;-73
2023/01/31 08:51:53;;;;;;;;;;;10.30;69.90;;;;;;4951763;29;19910;-73
2023/01/31 08:54:19;;;;;;;;;;;10.30;69.20;;;;;;4953173;29;19914;-75
2023/01/31 08:56:44;;;;;;;;;;;10.30;67.70;;;;;;4953151;28;19911;-73
2023/01/31 08:59:10;;;;;;;;;;;10.20;67.40;;;;;;4953027;29;19906;-73
2023/01/31 09:01:36;;;;;;;;;;;10.40;66.60;;;;;;4953185;29;19914;-74
2023/01/31 09:04:01;;;;;;;;;;;10.30;66.20;;;;;;4952877;29;19913;-73
2023/01/31 09:06:27;;;;;;;;;;;10.40;65.90;;;;;;4952678;28;19910;-74
2023/01/31 09:08:57;;;;;;;;;;;10.50;65.00;;;;;;4952759;28;19906;-73
2023/01/31 09:11:22;;;;;;;;;;;10.50;64.70;;;;;;4952631;28;19977;-73
2023/01/31 09:13:51;;;;;;;;;;;10.60;64.20;;;;;;4952822;29;19969;-74
2023/01/31 09:16:16;;;;;;;;;;;10.50;63.80;;;;;;4951970;29;19906;-73
2023/01/31 09:18:42;;;;;;;;;;;10.60;63.70;;;;;;4951612;29;19917;-73
2023/01/31 09:21:10;;;;;;;;;;;10.80;62.30;;;;;;4952797;28;19906;-73
2023/01/31 09:23:36;;;;;;;;;;;11.00;61.20;;;;;;4952736;29;19941;-72
2023/01/31 09:26:02;;;;;;;;;;;11.00;60.30;;;;;;4951363;29;19914;-74
2023/01/31 09:28:28;;;;;;;;;;;10.90;60.10;;;;;;4952662;28;19910;-73
2023/01/31 09:30:53;;;;;;;;;;;10.70;60.60;;;;;;4952193;28;19914;-73
2023/01/31 09:33:20;;;;;;;;;;;10.50;59.70;;;;;;4952543;29;19921;-74
2023/01/31 09:35:56;;;;;;;;;;;10.10;59.90;;;;;;4952431;28;19914;-73
2023/01/31 09:38:22;;;;;;;;;;;9.60;61.50;;;;;;4952548;28;19926;-73
2023/01/31 09:40:48;;;;;;;;;;;9.10;63.70;;;;;;4952383;28;19906;-73
2023/01/31 09:43:14;;;;;;;;;;;8.90;61.50;;;;;;4952573;28;20333;-76
2023/01/31 09:45:42;;;;;;;;;;;8.50;63.40;;;;;;4952408;28;19918;-74
2023/01/31 09:48:12;;;;;;;;;;;8.30;64.10;;;;;;4950962;28;19997;-73
2023/01/31 09:50:42;;;;;;;;;;;7.90;63.90;;;;;;4950908;28;19910;-74
2023/01/31 09:53:20;;;;;;;;;;;7.60;65.70;;;;;;4952216;28;20426;-75
2023/01/31 09:56:06;;;;;;;;;;;7.40;68.60;;;;;;4952373;28;19920;-75
2023/01/31 09:58:38;;;;;;;;;;;7.30;68.90;;;;;;4938632;29;19965;-75
2023/01/31 10:01:03;;;;;;;;;;;7.30;67.80;;;;;;4950351;28;19957;-75
2023/01/31 10:03:42;;;;;;;;;;;7.10;69.40;;;;;;4952110;29;19911;-73
2023/01/31 10:06:12;;;;;;;;;;;7.00;69.40;;;;;;4950714;28;20450;-72
2023/01/31 10:08:45;;;;;;;;;;;6.90;69.50;;;;;;4950970;29;20434;-73
2023/01/31 10:11:15;;;;;;;;;;;6.70;73.60;;;;;;4950742;29;20339;-72
2023/01/31 10:13:46;;;;;;;;;;;6.70;74.10;;;;;;4952221;28;19918;-75
2023/01/31 10:16:34;;;;;;;;;;;6.80;74.70;;;;;;4950822;29;19942;-72
2023/01/31 10:19:03;;;;;;;;;;;6.80;73.00;;;;;;4951857;28;19961;-73
2023/01/31 10:21:32;;;;;;;;;;;6.80;73.80;;;;;;4950685;29;20416;-74
2023/01/31 10:24:02;;;;;;;;;;;6.80;74.00;;;;;;4951949;28;19910;-75
2023/01/31 10:26:28;;;;;;;;;;;6.80;72.20;;;;;;4951975;28;20344;-74
2023/01/31 10:28:54;;;;;;;;;;;6.70;72.20;;;;;;4950612;29;19907;-74
2023/01/31 10:31:29;;;;;;;;;;;6.60;73.30;;;;;;4950592;29;19961;-74
2023/01/31 10:34:16;;;;;;;;;;;6.50;74.30;;;;;;4951746;28;19921;-74
2023/01/31 10:36:44;;;;;;;;;;;6.40;75.00;;;;;;4966565;28;19906;-74
2023/01/31 10:39:16;;;;;;;;;;;6.60;72.90;;;;;;4951819;28;19998;-74
2023/01/31 10:41:41;;;;;;;;;;;6.60;73.70;;;;;;4951940;28;19965;-74
2023/01/31 10:44:12;;;;;;;;;;;6.60;76.60;;;;;;4951694;28;20691;-73
2023/01/31 10:46:37;;;;;;;;;;;6.60;77.90;;;;;;4951537;28;19910;-74
2023/01/31 10:49:03;;;;;;;;;;;6.70;73.40;;;;;;4966408;28;20280;-75
2023/01/31 10:51:28;;;;;;;;;;;6.80;73.40;;;;;;4951697;29;19926;-74
2023/01/31 10:54:18;;;;;;;;;;;6.80;73.90;;;;;;4950236;29;19914;-75
2023/01/31 10:56:46;;;;;;;;;;;6.90;70.90;;;;;;4951615;28;19960;-73
2023/01/31 10:59:23;;;;;;;;;;;6.90;72.10;;;;;;4951640;28;19910;-74
2023/01/31 11:01:49;;;;;;;;;;;6.80;69.70;;;;;;4948165;29;20002;-73
2023/01/31 11:04:35;;;;;;;;;;;6.70;70.70;;;;;;4950271;29;19910;-74
2023/01/31 11:07:01;;;;;;;;;;;6.80;72.20;;;;;;4950810;29;19911;-74
2023/01/31 11:09:29;;;;;;;;;;;6.70;68.90;;;;;;4950311;28;20335;-74
2023/01/31 11:11:59;;;;;;;;;;;6.80;70.50;;;;;;4951902;28;19985;-74
2023/01/31 11:14:24;;;;;;;;;;;6.80;68.20;;;;;;4953624;29;19924;-74
2023/01/31 11:16:55;;;;;;;;;;;6.80;67.30;;;;;;4954822;28;20000;-74
2023/01/31 11:19:33;;;;;;;;;;;6.70;68.60;;;;;;4954916;28;19918;-74
2023/01/31 11:21:58;;;;;;;;;;;6.70;71.00;;;;;;4954653;28;19961;-74
2023/01/31 11:24:26;;;;;;;;;;;6.50;69.10;;;;;;4953205;29;19953;-74
2023/01/31 11:27:02;;;;;;;;;;;6.50;70.90;;;;;;4953459;29;19906;-74
2023/01/31 11:29:33;;;;;;;;;;;6.50;70.80;;;;;;4954539;28;19964;-74
2023/01/31 11:32:00;;;;;;;;;;;6.50;70.10;;;;;;4954583;28;19906;-74
2023/01/31 11:34:29;;;;;;;;;;;6.60;70.50;;;;;;4954380;28;20008;-74
2023/01/31 11:37:28;;;;;;;;;;;6.70;67.00;;;;;;4954718;28;19921;-73
2023/01/31 11:39:58;;;;;;;;;;;6.70;66.60;;;;;;4917642;28;19917;-74
2023/01/31 11:42:24;;;;;;;;;;;6.70;66.60;;;;;;4953990;28;20051;-73
2023/01/31 11:45:13;;;;;;;;;;;6.70;65.20;;;;;;4954355;28;20395;-73
2023/01/31 11:47:42;;;;;;;;;;;6.60;65.00;;;;;;4943843;28;19914;-74
2023/01/31 11:50:31;;;;;;;;;;;6.50;67.10;;;;;;4953059;29;19906;-73
2023/01/31 11:52:58;;;;;;;;;;;6.60;67.80;;;;;;4956495;28;19973;-74
2023/01/31 11:55:25;;;;;;;;;;;6.60;66.40;;;;;;4952860;29;19910;-73
2023/01/31 11:57:55;;;;;;;;;;;6.50;66.70;;;;;;4953767;28;19934;-73
2023/01/31 12:00:22;;;;;;;;;;;6.60;65.20;;;;;;4953755;28;20390;-73
2023/01/31 12:02:52;;;;;;;;;;;6.50;65.90;;;;;;4953998;28;20639;-72
2023/01/31 12:05:18;;;;;;;;;;;6.50;66.30;;;;;;4954083;28;19913;-73
2023/01/31 12:07:46;;;;;;;;;;;6.60;65.20;;;;;;4954119;28;19906;-73
2023/01/31 12:10:27;;;;;;;;;;;6.50;65.40;;;;;;4954037;28;19921;-75
2023/01/31 12:12:53;;;;;;;;;;;6.50;64.20;;;;;;4953763;28;19911;-73
2023/01/31 12:15:19;;;;;;;;;;;6.60;64.30;;;;;;4954013;28;19940;-73
2023/01/31 12:17:45;;;;;;;;;;;6.50;65.40;;;;;;4953793;28;19906;-72
2023/01/31 12:20:11;;;;;;;;;;;6.50;65.10;;;;;;4954137;28;20005;-73
2023/01/31 12:22:51;;;;;;;;;;;6.40;66.80;;;;;;4952039;28;20010;-73
2023/01/31 12:25:19;;;;;;;;;;;6.30;67.30;;;;;;4953728;28;19922;-73
2023/01/31 12:27:55;;;;;;;;;;;6.40;67.60;;;;;;4952452;29;19906;-74
2023/01/31 12:30:24;;;;;;;;;;;6.40;66.10;;;;;;4951840;29;19950;-74
2023/01/31 12:32:53;;;;;;;;;;;6.50;63.70;;;;;;4953374;28;19914;-74
2023/01/31 12:35:28;;;;;;;;;;;6.40;64.40;;;;;;4953536;29;20390;-74
2023/01/31 12:38:12;;;;;;;;;;;6.40;64.00;;;;;;4953253;29;20006;-74
2023/01/31 12:40:56;;;;;;;;;;;6.50;62.60;;;;;;4952601;28;19917;-74
2023/01/31 12:43:33;;;;;;;;;;;6.50;61.20;;;;;;4951175;29;19954;-74
2023/01/31 12:46:05;;;;;;;;;;;6.50;62.30;;;;;;4952200;28;19911;-74
2023/01/31 12:48:47;;;;;;;;;;;6.40;62.70;;;;;;4952192;28;20406;-73
2023/01/31 12:51:31;;;;;;;;;;;6.30;63.50;;;;;;4952118;29;19911;-73
2023/01/31 12:54:32;;;;;;;;;;;6.40;62.60;;;;;;4951927;28;19914;-74
2023/01/31 12:57:03;;;;;;;;;;;6.40;62.90;;;;;;4874032;29;19908;-72
2023/01/31 12:59:31;;;;;;;;;;;6.40;62.10;;;;;;4950311;28;19910;-73
2023/01/31 13:02:06;;;;;;;;;;;6.30;61.20;;;;;;4952401;28;20265;-73
2023/01/31 13:04:42;;;;;;;;;;;6.30;60.90;;;;;;4952882;28;19910;-72
2023/01/31 13:07:18;;;;;;;;;;;6.30;58.90;;;;;;4952927;28;19918;-72
2023/01/31 13:09:45;;;;;;;;;;;6.30;58.90;;;;;;4952998;28;19910;-73
2023/01/31 13:12:13;;;;;;;;;;;6.20;58.70;;;;;;4952814;28;19969;-73
2023/01/31 13:14:43;;;;;;;;;;;6.20;58.40;;;;;;4952719;28;19918;-74
2023/01/31 13:17:13;;;;;;;;;;;6.40;59.80;;;;;;4950911;29;20378;-74
2023/01/31 13:19:53;;;;;;;;;;;6.50;62.30;;;;;;4951681;28;20359;-74
2023/01/31 13:22:39;;;;;;;;;;;6.60;62.30;;;;;;4952107;28;19910;-74
2023/01/31 13:25:22;;;;;;;;;;;6.60;63.90;;;;;;4939176;28;19953;-73
2023/01/31 13:27:55;;;;;;;;;;;6.70;63.10;;;;;;4952654;28;19933;-74
2023/01/31 13:30:27;;;;;;;;;;;6.80;63.40;;;;;;4952608;28;19911;-74
2023/01/31 13:32:54;;;;;;;;;;;6.80;63.10;;;;;;4951977;28;19961;-74
2023/01/31 13:35:45;;;;;;;;;;;6.80;62.00;;;;;;4951483;28;19911;-74
2023/01/31 13:38:14;;;;;;;;;;;6.60;61.80;;;;;;4962784;28;19906;-72
2023/01/31 13:40:46;;;;;;;;;;;6.70;61.80;;;;;;4952227;28;19913;-73
2023/01/31 13:43:13;;;;;;;;;;;6.50;61.00;;;;;;4952389;28;20378;-74
2023/01/31 13:45:45;;;;;;;;;;;6.50;61.10;;;;;;4952352;28;19914;-72
2023/01/31 13:48:29;;;;;;;;;;;6.50;59.70;;;;;;4952176;28;19918;-74
2023/01/31 13:51:16;;;;;;;;;;;6.50;60.10;;;;;;4952185;28;19910;-73
2023/01/31 13:54:02;;;;;;;;;;;6.50;60.30;;;;;;4950884;28;20020;-72
2023/01/31 13:56:29;;;;;;;;;;;6.50;60.40;;;;;;4950057;28;19914;-74
2023/01/31 13:58:55;;;;;;;;;;;6.40;60.80;;;;;;4952186;28;20017;-73
2023/01/31 14:01:22;;;;;;;;;;;6.40;61.70;;;;;;4952087;28;19941;-74
2023/01/31 14:04:06;;;;;;;;;;;6.40;61.60;;;;;;4950804;29;19906;-74
2023/01/31 14:06:50;;;;;;;;;;;6.30;61.20;;;;;;4951966;28;19913;-73
2023/01/31 14:09:26;;;;;;;;;;;6.20;61.70;;;;;;4952069;28;20367;-72
2023/01/31 14:11:53;;;;;;;;;;;6.20;59.10;;;;;;4951959;28;19910;-72
2023/01/31 14:14:19;;;;;;;;;;;6.10;59.70;;;;;;4950547;29;20013;-73
2023/01/31 14:16:45;;;;;;;;;;;6.10;59.70;;;;;;4951978;28;20022;-72
2023/01/31 14:19:23;;;;;;;;;;;6.00;59.80;;;;;;4951026;29;19917;-74
2023/01/31 14:21:56;;;;;;;;;;;5.90;60.40;;;;;;4951893;29;20425;-74
2023/01/31 14:24:40;;;;;;;;;;;5.80;61.60;;;;;;4952012;28;19910;-73
2023/01/31 14:27:12;;;;;;;;;;;5.60;62.80;;;;;;4951972;28;19969;-73
2023/01/31 14:29:40;;;;;;;;;;;5.60;62.70;;;;;;4951930;28;19910;-74
2023/01/31 14:32:12;;;;;;;;;;;5.60;62.80;;;;;;4952220;28;19910;-73
2023/01/31 14:34:37;;;;;;;;;;;5.50;64.00;;;;;;4950650;29;19969;-73
2023/01/31 14:37:12;;;;;;;;;;;5.50;63.20;;;;;;4951944;28;19961;-74
2023/01/31 14:39:40;;;;;;;;;;;5.50;63.90;;;;;;4951939;28;19918;-74
2023/01/31 14:42:22;;;;;;;;;;;5.50;64.10;;;;;;4951541;29;19917;-74
2023/01/31 14:44:55;;;;;;;;;;;5.50;63.40;;;;;;4951747;28;19913;-73
2023/01/31 14:47:27;;;;;;;;;;;5.40;63.80;;;;;;4954021;28;20446;-73